createdAt,value
2018-09-30T00:00:00.527Z,6.07
2018-09-30T00:02:29.689Z,5.23
2018-09-30T00:04:58.878Z,5.67
2018-09-30T00:07:28.048Z,6.57
2018-09-30T00:09:57.215Z,4.70
2018-09-30T00:12:26.347Z,5.60
2018-09-30T00:14:55.513Z,5.40
2018-09-30T00:17:24.717Z,6.27
2018-09-30T00:19:53.911Z,5.83
2018-09-30T00:22:23.077Z,5.20
2018-09-30T00:24:57.653Z,5.77
2018-09-30T00:27:26.800Z,5.40
2018-09-30T00:29:55.936Z,5.33
2018-09-30T00:32:25.095Z,4.97
2018-09-30T00:34:54.253Z,5.67
2018-09-30T00:37:23.456Z,5.37
2018-09-30T00:39:52.667Z,5.30
2018-09-30T00:42:21.835Z,6.60
2018-09-30T00:44:50.992Z,5.93
2018-09-30T00:47:20.185Z,5.40
2018-09-30T00:49:49.319Z,5.23
2018-09-30T00:52:18.495Z,5.70
2018-09-30T00:54:47.636Z,5.10
2018-09-30T00:57:16.839Z,5.60
2018-09-30T00:59:46.104Z,5.33
2018-09-30T01:02:15.285Z,5.43
2018-09-30T01:04:44.465Z,5.87
2018-09-30T01:07:13.598Z,5.23
2018-09-30T01:09:42.811Z,6.20
2018-09-30T01:12:11.996Z,6.87
2018-09-30T01:14:41.250Z,5.67
2018-09-30T01:17:10.416Z,5.50
2018-09-30T01:19:39.587Z,5.10
2018-09-30T01:22:08.815Z,4.90
2018-09-30T01:24:37.950Z,5.93
2018-09-30T01:27:07.163Z,5.40
2018-09-30T01:29:36.320Z,5.33
2018-09-30T01:32:05.564Z,5.63
2018-09-30T01:34:34.740Z,5.40
2018-09-30T01:37:03.925Z,6.10
2018-09-30T01:39:33.111Z,5.50
2018-09-30T01:42:02.290Z,5.33
2018-09-30T01:44:31.424Z,5.97
2018-09-30T01:47:00.592Z,6.03
2018-09-30T01:49:29.810Z,6.20
2018-09-30T01:52:16.300Z,5.60
2018-09-30T01:54:45.499Z,6.27
2018-09-30T01:57:14.710Z,6.00
2018-09-30T01:59:43.898Z,5.73
2018-09-30T02:02:13.064Z,6.07
2018-09-30T02:04:42.330Z,7.00
2018-09-30T02:07:11.477Z,6.33
2018-09-30T02:09:40.669Z,7.00
2018-09-30T02:12:09.880Z,6.60
2018-09-30T02:14:39.005Z,6.50
2018-09-30T02:17:08.158Z,6.50
2018-09-30T02:19:37.318Z,5.70
2018-09-30T02:22:06.490Z,5.83
2018-09-30T02:24:35.600Z,6.63
2018-09-30T02:27:04.747Z,5.33
2018-09-30T02:29:33.944Z,5.67
2018-09-30T02:32:03.103Z,5.53
2018-09-30T02:34:32.246Z,6.03
2018-09-30T02:37:01.406Z,6.80
2018-09-30T02:39:30.568Z,5.63
2018-09-30T02:41:59.760Z,5.53
2018-09-30T02:44:28.934Z,6.10
2018-09-30T02:46:58.101Z,5.33
2018-09-30T02:49:27.340Z,6.10
2018-09-30T02:51:56.545Z,6.10
2018-09-30T02:54:25.705Z,6.10
2018-09-30T02:56:54.963Z,6.00
2018-09-30T02:59:24.137Z,5.87
2018-09-30T03:01:53.298Z,5.83
2018-09-30T03:04:22.490Z,5.80
2018-09-30T03:06:57.030Z,5.97
2018-09-30T03:09:26.197Z,5.60
2018-09-30T03:11:55.330Z,5.63
2018-09-30T03:14:24.519Z,6.90
2018-09-30T03:16:53.642Z,5.33
2018-09-30T03:19:22.804Z,6.10
2018-09-30T03:21:56.580Z,6.83
2018-09-30T03:24:25.685Z,6.63
2018-09-30T03:26:54.782Z,6.50
2018-09-30T03:29:23.937Z,6.57
2018-09-30T03:31:53.058Z,7.27
2018-09-30T03:34:22.181Z,6.73
2018-09-30T03:36:51.269Z,6.20
2018-09-30T03:39:20.399Z,6.40
2018-09-30T03:41:49.487Z,6.67
2018-09-30T03:44:18.676Z,7.00
2018-09-30T03:46:47.774Z,6.70
2018-09-30T03:49:16.874Z,6.03
2018-09-30T03:51:46.021Z,6.73
2018-09-30T03:54:15.200Z,6.30
2018-09-30T03:56:44.404Z,8.40
2018-09-30T03:59:13.439Z,7.73
2018-09-30T04:01:42.567Z,7.13
2018-09-30T04:04:11.695Z,6.80
2018-09-30T04:06:40.810Z,7.37
2018-09-30T04:09:10.337Z,7.20
2018-09-30T04:11:39.579Z,6.27
2018-09-30T04:14:08.758Z,6.87
2018-09-30T04:16:37.922Z,6.63
2018-09-30T04:19:07.065Z,9.27
2018-09-30T04:21:36.178Z,7.33
2018-09-30T04:24:08.212Z,6.90
2018-09-30T04:26:38.394Z,7.17
2018-09-30T04:29:07.676Z,7.27
2018-09-30T04:31:36.836Z,7.60
2018-09-30T04:34:06.116Z,8.00
2018-09-30T04:36:36.115Z,7.40
2018-09-30T04:39:07.954Z,8.00
2018-09-30T04:41:37.070Z,9.20
2018-09-30T04:44:06.194Z,7.57
2018-09-30T04:46:35.327Z,8.37
2018-09-30T04:49:04.445Z,8.50
2018-09-30T04:51:33.592Z,9.33
2018-09-30T04:54:02.725Z,7.50
2018-09-30T04:56:31.829Z,7.43
2018-09-30T04:59:00.977Z,7.50
2018-09-30T05:01:30.124Z,8.40
2018-09-30T05:03:59.301Z,7.70
2018-09-30T05:06:28.468Z,8.17
2018-09-30T05:08:57.604Z,7.70
2018-09-30T05:11:26.799Z,8.67
2018-09-30T05:13:55.895Z,7.77
2018-09-30T05:16:25.059Z,8.87
2018-09-30T05:18:54.163Z,8.13
2018-09-30T05:21:23.289Z,7.50
2018-09-30T05:23:52.426Z,7.50
2018-09-30T05:26:21.548Z,8.53
2018-09-30T05:28:50.712Z,8.97
2018-09-30T05:31:20.017Z,7.47
2018-09-30T05:33:49.103Z,8.03
2018-09-30T05:36:18.275Z,8.77
2018-09-30T05:38:47.539Z,8.27
2018-09-30T05:41:16.715Z,7.77
2018-09-30T05:43:45.847Z,7.30
2018-09-30T05:46:15.003Z,7.40
2018-09-30T05:48:44.194Z,7.97
2018-09-30T05:51:13.348Z,8.27
2018-09-30T05:53:42.462Z,8.17
2018-09-30T05:56:11.597Z,8.40
2018-09-30T05:58:40.734Z,7.97
2018-09-30T06:01:09.834Z,7.60
2018-09-30T06:03:39.008Z,7.93
2018-09-30T06:06:08.101Z,7.57
2018-09-30T06:08:37.214Z,7.07
2018-09-30T06:11:06.389Z,6.80
2018-09-30T06:13:35.517Z,8.37
2018-09-30T06:16:04.702Z,7.83
2018-09-30T06:18:33.849Z,7.67
2018-09-30T06:21:02.979Z,6.80
2018-09-30T06:23:32.321Z,8.00
2018-09-30T06:26:01.515Z,8.13
2018-09-30T06:28:30.666Z,7.30
2018-09-30T06:30:59.764Z,7.33
2018-09-30T06:33:28.859Z,7.67
2018-09-30T06:35:57.982Z,6.47
2018-09-30T06:38:27.063Z,8.43
2018-09-30T06:40:56.207Z,6.43
2018-09-30T06:43:25.408Z,6.00
2018-09-30T06:45:54.508Z,6.57
2018-09-30T06:48:23.857Z,6.30
2018-09-30T06:50:52.979Z,6.17
2018-09-30T06:53:22.139Z,5.73
2018-09-30T06:55:51.246Z,5.50
2018-09-30T06:58:20.381Z,5.53
2018-09-30T07:00:49.561Z,6.30
2018-09-30T07:03:18.754Z,6.10
2018-09-30T07:05:48.920Z,6.03
2018-09-30T07:08:18.017Z,5.63
2018-09-30T07:10:47.208Z,5.07
2018-09-30T07:13:16.344Z,5.23
2018-09-30T07:15:45.445Z,4.80
2018-09-30T07:18:15.643Z,4.83
2018-09-30T07:20:44.829Z,4.40
2018-09-30T07:23:13.937Z,5.20
2018-09-30T07:25:43.038Z,4.60
2018-09-30T07:28:12.124Z,4.60
2018-09-30T07:30:41.227Z,4.50
2018-09-30T07:33:10.326Z,4.30
2018-09-30T07:35:39.417Z,4.60
2018-09-30T07:38:08.497Z,5.73
2018-09-30T07:40:38.489Z,4.30
2018-09-30T07:43:07.627Z,4.57
2018-09-30T07:45:36.859Z,3.43
2018-09-30T07:48:05.959Z,4.70
2018-09-30T07:50:35.108Z,3.90
2018-09-30T07:53:04.193Z,3.60
2018-09-30T07:55:33.318Z,3.53
2018-09-30T07:58:02.428Z,3.23
2018-09-30T08:00:31.554Z,3.00
2018-09-30T08:03:00.689Z,3.17
2018-09-30T08:05:29.802Z,2.77
2018-09-30T08:07:58.886Z,3.10
2018-09-30T08:10:27.989Z,3.37
2018-09-30T08:12:57.053Z,2.90
2018-09-30T08:15:26.187Z,2.47
2018-09-30T08:17:55.274Z,2.80
2018-09-30T08:20:24.376Z,2.00
2018-09-30T08:22:53.598Z,2.20
2018-09-30T08:25:22.763Z,2.90
2018-09-30T08:27:52.023Z,2.30
2018-09-30T08:30:21.115Z,2.97
2018-09-30T08:32:50.254Z,2.13
2018-09-30T08:35:19.378Z,2.70
2018-09-30T08:37:53.914Z,2.53
2018-09-30T08:40:28.309Z,3.40
2018-09-30T08:42:57.698Z,2.63
2018-09-30T08:45:26.826Z,3.20
2018-09-30T08:47:55.955Z,2.70
2018-09-30T08:50:25.088Z,2.47
2018-09-30T08:52:54.202Z,2.13
2018-09-30T08:55:23.335Z,2.40
2018-09-30T08:57:52.529Z,2.43
2018-09-30T09:00:21.689Z,2.10
2018-09-30T09:02:50.823Z,2.37
2018-09-30T09:05:19.955Z,2.83
2018-09-30T09:07:49.099Z,2.50
2018-09-30T09:10:18.229Z,3.10
2018-09-30T09:12:47.386Z,2.47
2018-09-30T09:15:16.579Z,2.33
2018-09-30T09:17:45.684Z,2.27
2018-09-30T09:20:14.799Z,2.00
2018-09-30T09:22:43.950Z,2.30
2018-09-30T09:25:13.039Z,1.90
2018-09-30T09:27:42.166Z,1.73
2018-09-30T09:30:11.269Z,1.60
2018-09-30T09:32:40.371Z,1.87
2018-09-30T09:35:10.488Z,1.80
2018-09-30T09:37:39.834Z,1.87
2018-09-30T09:40:10.882Z,1.60
2018-09-30T09:42:40.191Z,1.40
2018-09-30T09:45:09.395Z,1.60
2018-09-30T09:47:38.587Z,1.70
2018-09-30T09:50:08.478Z,1.30
2018-09-30T09:52:37.698Z,1.00
2018-09-30T09:55:06.738Z,1.67
2018-09-30T09:57:35.813Z,1.30
2018-09-30T10:00:05.060Z,1.40
2018-09-30T10:02:34.182Z,1.87
2018-09-30T10:05:03.389Z,1.73
2018-09-30T10:07:32.478Z,1.40
2018-09-30T10:10:01.634Z,1.67
2018-09-30T10:12:30.704Z,1.90
2018-09-30T10:14:59.837Z,1.40
2018-09-30T10:17:28.969Z,1.53
2018-09-30T10:19:58.071Z,1.60
2018-09-30T10:22:27.238Z,1.27
2018-09-30T10:24:56.444Z,1.53
2018-09-30T10:27:25.567Z,1.60
2018-09-30T10:29:54.708Z,1.90
2018-09-30T10:32:23.901Z,1.37
2018-09-30T10:34:53.126Z,2.97
2018-09-30T10:37:22.238Z,1.37
2018-09-30T10:39:51.393Z,1.70
2018-09-30T10:42:20.508Z,1.33
2018-09-30T10:44:49.622Z,1.40
2018-09-30T10:47:18.745Z,1.70
2018-09-30T10:49:47.849Z,1.33
2018-09-30T10:52:17.006Z,1.43
2018-09-30T10:54:46.102Z,1.53
2018-09-30T10:57:16.051Z,1.67
2018-09-30T10:59:45.167Z,1.90
2018-09-30T11:02:14.305Z,1.70
2018-09-30T11:04:43.409Z,2.03
2018-09-30T11:07:12.519Z,2.17
2018-09-30T11:09:41.699Z,2.07
2018-09-30T11:12:10.797Z,1.80
2018-09-30T11:14:39.897Z,2.23
2018-09-30T11:17:09.069Z,1.50
2018-09-30T11:19:38.160Z,1.83
2018-09-30T11:22:07.256Z,2.30
2018-09-30T11:24:36.522Z,1.93
2018-09-30T11:27:05.863Z,1.63
2018-09-30T11:29:35.017Z,1.80
2018-09-30T11:32:04.165Z,2.07
2018-09-30T11:34:33.287Z,1.70
2018-09-30T11:37:02.447Z,1.77
2018-09-30T11:39:31.592Z,2.17
2018-09-30T11:42:00.737Z,1.70
2018-09-30T11:44:29.874Z,1.87
2018-09-30T11:46:58.985Z,1.97
2018-09-30T11:49:28.102Z,2.27
2018-09-30T11:51:57.251Z,1.60
2018-09-30T11:54:26.335Z,1.47
2018-09-30T11:56:55.522Z,1.70
2018-09-30T11:59:24.635Z,2.70
2018-09-30T12:01:53.781Z,1.90
2018-09-30T12:04:22.945Z,1.57
2018-09-30T12:06:52.056Z,2.30
2018-09-30T12:09:21.205Z,1.80
2018-09-30T12:11:50.315Z,1.77
2018-09-30T12:14:19.427Z,1.53
2018-09-30T12:16:48.525Z,2.23
2018-09-30T12:19:17.657Z,1.57
2018-09-30T12:21:46.813Z,1.17
2018-09-30T12:24:15.908Z,1.83
2018-09-30T12:26:45.010Z,1.23
2018-09-30T12:29:14.155Z,1.73
2018-09-30T12:31:43.270Z,1.40
2018-09-30T12:34:12.419Z,1.80
2018-09-30T12:36:41.522Z,1.47
2018-09-30T12:39:11.466Z,1.20
2018-09-30T12:41:40.553Z,1.43
2018-09-30T12:44:09.677Z,1.50
2018-09-30T12:46:38.820Z,1.63
2018-09-30T12:49:07.946Z,1.67
2018-09-30T12:51:37.071Z,1.33
2018-09-30T12:54:06.199Z,1.73
2018-09-30T12:56:35.301Z,1.57
2018-09-30T12:59:04.421Z,1.23
2018-09-30T13:01:33.550Z,1.53
2018-09-30T13:04:02.695Z,1.77
2018-09-30T13:06:31.809Z,1.30
2018-09-30T13:09:00.932Z,1.73
2018-09-30T13:11:30.103Z,1.10
2018-09-30T13:13:59.254Z,1.47
2018-09-30T13:16:28.341Z,1.70
2018-09-30T13:18:57.482Z,1.70
2018-09-30T13:21:26.689Z,1.30
2018-09-30T13:23:55.786Z,1.20
2018-09-30T13:26:24.930Z,1.57
2018-09-30T13:28:54.082Z,1.70
2018-09-30T13:31:23.640Z,1.60
2018-09-30T13:33:52.795Z,1.30
2018-09-30T13:36:21.931Z,1.50
2018-09-30T13:38:51.091Z,1.63
2018-09-30T13:41:20.210Z,1.13
2018-09-30T13:43:49.376Z,1.53
2018-09-30T13:46:18.593Z,1.17
2018-09-30T13:48:47.646Z,1.47
2018-09-30T13:51:16.795Z,1.50
2018-09-30T13:53:45.931Z,1.67
2018-09-30T13:56:15.038Z,1.40
2018-09-30T13:58:44.163Z,1.20
2018-09-30T14:01:13.310Z,1.57
2018-09-30T14:03:42.500Z,1.07
2018-09-30T14:06:11.651Z,0.90
2018-09-30T14:08:40.817Z,1.57
2018-09-30T14:11:09.913Z,1.27
2018-09-30T14:13:39.054Z,1.60
2018-09-30T14:16:08.436Z,1.50
2018-09-30T14:18:37.516Z,1.30
2018-09-30T14:21:06.645Z,1.23
2018-09-30T14:23:35.825Z,1.37
2018-09-30T14:26:04.975Z,1.70
2018-09-30T14:28:34.077Z,1.30
2018-09-30T14:31:03.192Z,1.60
2018-09-30T14:33:32.453Z,1.70
2018-09-30T14:36:01.637Z,1.53
2018-09-30T14:38:30.793Z,1.60
2018-09-30T14:40:59.888Z,1.83
2018-09-30T14:43:29.018Z,1.77
2018-09-30T14:45:58.130Z,1.37
2018-09-30T14:48:27.320Z,1.50
2018-09-30T14:50:56.434Z,1.37
2018-09-30T14:53:25.537Z,1.30
2018-09-30T14:55:54.638Z,1.03
2018-09-30T14:58:23.774Z,1.53
2018-09-30T15:00:52.886Z,1.30
2018-09-30T15:03:22.063Z,0.97
2018-09-30T15:05:51.204Z,1.07
2018-09-30T15:08:20.347Z,1.40
2018-09-30T15:10:49.421Z,1.10
2018-09-30T15:13:18.583Z,2.10
2018-09-30T15:15:47.712Z,1.37
2018-09-30T15:18:16.894Z,1.67
2018-09-30T15:20:46.086Z,1.50
2018-09-30T15:23:15.224Z,1.67
2018-09-30T15:25:44.386Z,1.40
2018-09-30T15:28:13.527Z,1.27
2018-09-30T15:30:42.637Z,1.40
2018-09-30T15:33:11.774Z,1.70
2018-09-30T15:35:40.871Z,1.67
2018-09-30T15:38:10.151Z,1.57
2018-09-30T15:40:39.258Z,1.80
2018-09-30T15:43:08.357Z,1.43
2018-09-30T15:45:37.497Z,1.40
2018-09-30T15:48:06.634Z,1.50
2018-09-30T15:50:35.810Z,1.40
2018-09-30T15:53:04.980Z,1.70
2018-09-30T15:55:34.104Z,2.20
2018-09-30T15:58:03.205Z,1.90
2018-09-30T16:00:32.435Z,1.13
2018-09-30T16:03:01.588Z,1.40
2018-09-30T16:05:30.772Z,1.80
2018-09-30T16:07:59.905Z,2.00
2018-09-30T16:10:29.082Z,1.83
2018-09-30T16:12:58.215Z,1.20
2018-09-30T16:15:27.350Z,1.30
2018-09-30T16:17:56.508Z,1.30
2018-09-30T16:20:25.624Z,1.57
2018-09-30T16:22:54.768Z,1.70
2018-09-30T16:25:23.897Z,1.50
2018-09-30T16:27:53.065Z,1.10
2018-09-30T16:30:22.197Z,1.63
2018-09-30T16:32:51.567Z,1.10
2018-09-30T16:35:21.058Z,1.47
2018-09-30T16:37:50.214Z,1.60
2018-09-30T16:40:19.322Z,1.40
2018-09-30T16:42:48.412Z,1.50
2018-09-30T16:45:17.706Z,1.37
2018-09-30T16:47:47.371Z,2.40
2018-09-30T16:50:16.520Z,3.20
2018-09-30T16:52:45.749Z,2.50
2018-09-30T16:55:14.896Z,2.27
2018-09-30T16:57:44.022Z,3.07
2018-09-30T17:00:13.199Z,3.23
2018-09-30T17:02:42.293Z,3.10
2018-09-30T17:05:11.398Z,4.07
2018-09-30T17:07:40.662Z,7.37
2018-09-30T17:10:09.977Z,8.37
2018-09-30T17:12:39.116Z,9.93
2018-09-30T17:15:08.538Z,4.10
2018-09-30T17:17:37.629Z,2.87
2018-09-30T17:20:06.736Z,3.30
2018-09-30T17:22:35.882Z,3.13
2018-09-30T17:25:04.996Z,3.27
2018-09-30T17:27:34.125Z,3.07
2018-09-30T17:30:03.238Z,3.27
2018-09-30T17:32:32.403Z,3.40
2018-09-30T17:35:01.502Z,3.70
2018-09-30T17:37:30.601Z,3.57
2018-09-30T17:39:59.739Z,3.93
2018-09-30T17:42:28.862Z,3.70
2018-09-30T17:44:58.022Z,3.47
2018-09-30T17:47:27.110Z,3.50
2018-09-30T17:49:56.255Z,2.77
2018-09-30T17:52:25.390Z,3.70
2018-09-30T17:54:54.512Z,3.20
2018-09-30T17:57:23.652Z,4.30
2018-09-30T17:59:52.792Z,3.73
2018-09-30T18:02:21.914Z,2.77
2018-09-30T18:04:51.051Z,4.33
2018-09-30T18:07:20.195Z,3.23
2018-09-30T18:09:49.419Z,2.80
2018-09-30T18:12:18.536Z,2.87
2018-09-30T18:14:47.682Z,2.90
2018-09-30T18:17:16.810Z,3.27
2018-09-30T18:19:45.905Z,2.83
2018-09-30T18:22:15.297Z,3.03
2018-09-30T18:24:44.463Z,3.20
2018-09-30T18:27:13.576Z,4.83
2018-09-30T18:29:42.712Z,4.60
2018-09-30T18:32:11.782Z,4.70
2018-09-30T18:34:40.990Z,4.20
2018-09-30T18:37:10.115Z,5.00
2018-09-30T18:39:39.219Z,5.20
2018-09-30T18:42:08.365Z,4.90
2018-09-30T18:44:37.502Z,4.67
2018-09-30T18:47:06.721Z,5.40
2018-09-30T18:49:35.858Z,4.40
2018-09-30T18:52:04.942Z,5.60
2018-09-30T18:54:34.109Z,6.40
2018-09-30T18:57:03.238Z,6.90
2018-09-30T18:59:32.369Z,5.97
2018-09-30T19:02:01.461Z,5.53
2018-09-30T19:04:30.558Z,6.27
2018-09-30T19:06:59.685Z,5.40
2018-09-30T19:09:28.798Z,6.47
2018-09-30T19:11:57.940Z,5.07
2018-09-30T19:14:26.969Z,4.80
2018-09-30T19:16:56.110Z,5.40
2018-09-30T19:19:25.189Z,6.10
2018-09-30T19:21:54.289Z,6.17
2018-09-30T19:24:23.405Z,5.80
2018-09-30T19:26:52.562Z,5.63
2018-09-30T19:29:21.695Z,6.27
2018-09-30T19:31:52.215Z,6.50
2018-09-30T19:34:21.690Z,6.33
2018-09-30T19:36:50.788Z,6.10
2018-09-30T19:39:19.890Z,5.67
2018-09-30T19:41:49.070Z,6.37
2018-09-30T19:44:18.171Z,7.77
2018-09-30T19:46:47.291Z,8.17
2018-09-30T19:49:16.402Z,8.30
2018-09-30T19:51:45.546Z,8.33
2018-09-30T19:54:14.637Z,9.37
2018-09-30T19:56:43.756Z,11.90
2018-09-30T19:59:12.911Z,7.67
2018-09-30T20:01:42.164Z,11.60
2018-09-30T20:04:11.265Z,7.60
2018-09-30T20:06:43.211Z,10.10
2018-09-30T20:09:12.347Z,8.03
2018-09-30T20:11:41.488Z,9.27
2018-09-30T20:14:10.588Z,9.10
2018-09-30T20:16:39.685Z,9.03
2018-09-30T20:19:08.821Z,6.93
2018-09-30T20:21:37.930Z,5.73
2018-09-30T20:24:07.098Z,4.70
2018-09-30T20:26:36.234Z,5.33
2018-09-30T20:29:05.413Z,5.30
2018-09-30T20:31:34.575Z,5.37
2018-09-30T20:34:03.674Z,4.67
2018-09-30T20:36:32.816Z,3.80
2018-09-30T20:39:01.959Z,4.77
2018-09-30T20:41:31.089Z,4.97
2018-09-30T20:44:00.243Z,4.77
2018-09-30T20:46:29.388Z,4.30
2018-09-30T20:48:58.537Z,4.60
2018-09-30T20:51:27.638Z,5.20
2018-09-30T20:53:56.854Z,5.03
2018-09-30T20:56:25.922Z,4.47
2018-09-30T20:58:55.083Z,4.53
2018-09-30T21:01:24.158Z,3.77
2018-09-30T21:03:53.282Z,3.80
2018-09-30T21:06:27.515Z,3.60
2018-09-30T21:08:56.665Z,4.30
2018-09-30T21:11:25.849Z,3.80
2018-09-30T21:13:54.951Z,4.00
2018-09-30T21:16:24.131Z,3.73
2018-09-30T21:18:53.233Z,3.63
2018-09-30T21:21:22.340Z,4.37
2018-09-30T21:23:51.458Z,3.13
2018-09-30T21:26:20.618Z,4.20
2018-09-30T21:28:49.740Z,3.53
2018-09-30T21:31:18.917Z,3.63
2018-09-30T21:33:48.075Z,3.70
2018-09-30T21:36:17.319Z,4.20
2018-09-30T21:38:46.428Z,3.60
2018-09-30T21:41:15.597Z,2.83
2018-09-30T21:43:44.740Z,3.50
2018-09-30T21:46:13.888Z,3.57
2018-09-30T21:48:43.130Z,3.50
2018-09-30T21:51:12.221Z,4.40
2018-09-30T21:53:41.363Z,3.87
2018-09-30T21:56:10.513Z,3.57
2018-09-30T21:58:39.647Z,3.07
2018-09-30T22:01:08.810Z,3.80
2018-09-30T22:03:37.969Z,3.93
2018-09-30T22:06:07.189Z,2.80
2018-09-30T22:08:36.674Z,2.90
2018-09-30T22:11:05.806Z,2.90
2018-09-30T22:13:34.943Z,2.87
2018-09-30T22:16:04.091Z,3.70
2018-09-30T22:18:33.280Z,2.93
2018-09-30T22:21:02.391Z,2.63
2018-09-30T22:23:31.511Z,2.80
2018-09-30T22:26:00.676Z,2.80
2018-09-30T22:28:29.840Z,2.60
2018-09-30T22:30:58.979Z,2.83
2018-09-30T22:33:28.213Z,2.47
2018-09-30T22:35:57.329Z,2.63
2018-09-30T22:38:26.461Z,2.53
2018-09-30T22:40:55.606Z,2.53
2018-09-30T22:43:24.709Z,2.93
2018-09-30T22:45:53.896Z,2.27
2018-09-30T22:48:23.033Z,2.50
2018-09-30T22:50:52.149Z,3.00
2018-09-30T22:53:21.390Z,3.03
2018-09-30T22:55:50.459Z,2.40
2018-09-30T22:58:19.687Z,2.77
2018-09-30T23:00:48.830Z,2.50
2018-09-30T23:03:17.961Z,2.40
2018-09-30T23:05:47.077Z,2.37
2018-09-30T23:08:16.300Z,2.17
2018-09-30T23:10:45.371Z,2.93
2018-09-30T23:13:14.482Z,3.10
2018-09-30T23:15:43.627Z,2.20
2018-09-30T23:18:12.779Z,3.03
2018-09-30T23:20:41.941Z,2.60
2018-09-30T23:23:11.077Z,3.00
2018-09-30T23:25:40.203Z,2.97
2018-09-30T23:28:09.339Z,3.10
2018-09-30T23:30:38.485Z,2.57
2018-09-30T23:33:07.630Z,2.50
2018-09-30T23:35:36.796Z,2.33
2018-09-30T23:38:05.966Z,2.73
2018-09-30T23:40:35.090Z,3.43
2018-09-30T23:43:04.241Z,3.00
2018-09-30T23:45:33.389Z,2.97
2018-09-30T23:48:02.537Z,2.60
2018-09-30T23:50:31.668Z,2.53
2018-09-30T23:53:00.822Z,2.87
2018-09-30T23:55:30.005Z,2.73
2018-09-30T23:58:11.867Z,2.77
